createdAt,value
2023-01-10T00:00:35.184Z,101042.41
2023-01-10T00:03:03.295Z,101044.34
2023-01-10T00:05:30.315Z,101048.06
2023-01-10T00:07:59.032Z,101046.75
2023-01-10T00:10:26.050Z,101043.34
2023-01-10T00:13:11.417Z,101052.13
2023-01-10T00:15:38.918Z,101063.38
2023-01-10T00:18:05.809Z,101055.56
2023-01-10T00:20:33.043Z,101062.56
2023-01-10T00:23:00.313Z,101076.84
2023-01-10T00:25:27.415Z,101083.34
2023-01-10T00:28:20.992Z,101094.50
2023-01-10T00:30:54.965Z,101082.97
2023-01-10T00:33:22.403Z,101093.13
2023-01-10T00:35:49.228Z,101093.44
2023-01-10T00:38:16.219Z,101091.34
2023-01-10T00:40:42.931Z,101098.75
2023-01-10T00:43:29.425Z,101091.91
2023-01-10T00:45:58.094Z,101101.81
2023-01-10T00:48:25.360Z,101114.78
2023-01-10T00:50:52.309Z,101113.97
2023-01-10T00:53:19.628Z,101112.22
2023-01-10T00:55:46.799Z,101118.09
2023-01-10T00:58:15.039Z,101115.16
2023-01-10T01:00:42.765Z,101120.50
2023-01-10T01:03:09.689Z,101117.28
2023-01-10T01:05:44.135Z,101121.56
2023-01-10T01:08:12.280Z,101117.69
2023-01-10T01:10:39.076Z,101104.31
2023-01-10T01:13:10.781Z,101116.34
2023-01-10T01:15:37.914Z,101127.66
2023-01-10T01:18:05.332Z,101140.34
2023-01-10T01:20:32.863Z,101142.88
2023-01-10T01:23:00.856Z,101139.69
2023-01-10T01:25:27.866Z,101147.69
2023-01-10T01:27:54.789Z,101144.53
2023-01-10T01:30:21.612Z,101146.81
2023-01-10T01:32:48.503Z,101148.44
2023-01-10T01:35:16.335Z,101155.50
2023-01-10T01:37:43.743Z,101149.06
2023-01-10T01:40:21.542Z,101163.19
2023-01-10T01:42:48.960Z,101162.91
2023-01-10T01:45:33.171Z,101170.63
2023-01-10T01:48:29.343Z,101168.63
2023-01-10T01:50:59.360Z,101172.41
2023-01-10T01:53:34.500Z,101185.97
2023-01-10T01:56:05.834Z,101187.53
2023-01-10T01:58:54.779Z,101190.41
2023-01-10T02:01:22.280Z,101188.09
2023-01-10T02:03:54.334Z,101202.28
2023-01-10T02:06:21.855Z,101198.09
2023-01-10T02:08:56.986Z,101199.06
2023-01-10T02:11:23.817Z,101202.69
2023-01-10T02:13:50.667Z,101203.09
2023-01-10T02:16:18.116Z,101201.50
2023-01-10T02:18:45.099Z,101210.16
2023-01-10T02:21:36.503Z,101206.00
2023-01-10T02:24:26.753Z,101207.22
2023-01-10T02:27:18.023Z,101202.25
2023-01-10T02:30:13.634Z,101194.34
2023-01-10T02:33:15.829Z,101203.00
2023-01-10T02:36:08.768Z,101208.22
2023-01-10T02:38:53.982Z,101212.16
2023-01-10T02:41:33.474Z,101208.31
2023-01-10T02:44:04.917Z,101216.28
2023-01-10T02:46:32.403Z,101224.28
2023-01-10T02:48:59.185Z,101222.66
2023-01-10T02:51:33.474Z,101216.34
2023-01-10T02:54:03.855Z,101225.00
2023-01-10T02:56:58.779Z,101220.41
2023-01-10T03:00:03.215Z,101222.13
2023-01-10T03:02:35.923Z,101234.19
2023-01-10T03:05:11.268Z,101235.59
2023-01-10T03:07:46.429Z,101235.88
2023-01-10T03:10:35.386Z,101242.06
2023-01-10T03:13:03.849Z,101242.06
2023-01-10T03:15:34.575Z,101250.97
2023-01-10T03:18:04.296Z,101255.00
2023-01-10T03:20:33.145Z,101245.78
2023-01-10T03:23:03.585Z,101257.88
2023-01-10T03:25:34.245Z,101266.84
2023-01-10T03:28:07.003Z,101267.41
2023-01-10T03:30:47.236Z,101267.69
2023-01-10T03:33:18.057Z,101266.47
2023-01-10T03:35:51.074Z,101264.53
2023-01-10T03:38:39.477Z,101268.59
2023-01-10T03:41:29.427Z,101268.78
2023-01-10T03:44:34.020Z,101285.00
2023-01-10T03:47:06.252Z,101281.97
2023-01-10T03:49:35.304Z,101289.03
2023-01-10T03:52:02.348Z,101288.91
2023-01-10T03:54:29.205Z,101291.47
2023-01-10T03:56:56.175Z,101300.16
2023-01-10T03:59:25.701Z,101307.69
2023-01-10T04:01:53.054Z,101300.09
2023-01-10T04:04:20.074Z,101302.31
2023-01-10T04:06:46.947Z,101296.13
2023-01-10T04:09:13.916Z,101298.75
2023-01-10T04:11:40.692Z,101308.09
2023-01-10T04:14:07.414Z,101304.88
2023-01-10T04:16:34.294Z,101314.50
2023-01-10T04:19:01.076Z,101316.19
2023-01-10T04:21:27.837Z,101317.59
2023-01-10T04:23:54.656Z,101326.50
2023-01-10T04:26:21.406Z,101326.84
2023-01-10T04:28:48.246Z,101325.44
2023-01-10T04:31:15.295Z,101318.25
2023-01-10T04:33:43.240Z,101319.03
2023-01-10T04:36:10.159Z,101335.88
2023-01-10T04:38:36.948Z,101331.94
2023-01-10T04:41:05.846Z,101331.56
2023-01-10T04:43:32.691Z,101340.84
2023-01-10T04:45:59.678Z,101333.44
2023-01-10T04:48:27.190Z,101349.59
2023-01-10T04:50:54.576Z,101357.09
2023-01-10T04:53:21.927Z,101356.88
2023-01-10T04:55:48.948Z,101357.38
2023-01-10T04:58:15.890Z,101360.56
2023-01-10T05:00:42.771Z,101358.91
2023-01-10T05:03:09.618Z,101368.16
2023-01-10T05:05:36.526Z,101365.72
2023-01-10T05:08:03.529Z,101378.88
2023-01-10T05:10:30.355Z,101370.66
2023-01-10T05:12:57.190Z,101374.09
2023-01-10T05:15:24.057Z,101366.69
2023-01-10T05:17:51.418Z,101366.28
2023-01-10T05:20:18.431Z,101373.72
2023-01-10T05:22:45.949Z,101380.28
2023-01-10T05:25:12.794Z,101383.63
2023-01-10T05:27:42.543Z,101389.44
2023-01-10T05:30:11.493Z,101394.25
2023-01-10T05:32:38.339Z,101395.34
2023-01-10T05:35:05.622Z,101409.34
2023-01-10T05:37:32.309Z,101424.50
2023-01-10T05:39:59.107Z,101409.13
2023-01-10T05:42:25.955Z,101404.13
2023-01-10T05:44:52.818Z,101400.53
2023-01-10T05:47:19.509Z,101405.69
2023-01-10T05:49:46.285Z,101405.44
2023-01-10T05:52:12.977Z,101400.34
2023-01-10T05:54:41.086Z,101395.38
2023-01-10T05:57:07.917Z,101400.38
2023-01-10T05:59:34.976Z,101405.72
2023-01-10T06:02:01.776Z,101410.84
2023-01-10T06:04:28.582Z,101417.28
2023-01-10T06:06:55.405Z,101419.97
2023-01-10T06:09:22.147Z,101422.94
2023-01-10T06:11:49.118Z,101417.53
2023-01-10T06:14:19.525Z,101422.69
2023-01-10T06:16:47.432Z,101424.53
2023-01-10T06:19:14.646Z,101415.13
2023-01-10T06:21:41.460Z,101423.78
2023-01-10T06:24:08.842Z,101424.56
2023-01-10T06:26:35.582Z,101426.19
2023-01-10T06:29:02.267Z,101430.47
2023-01-10T06:31:29.170Z,101428.63
2023-01-10T06:33:56.249Z,101423.22
2023-01-10T06:36:23.089Z,101427.25
2023-01-10T06:38:49.864Z,101433.41
2023-01-10T06:41:16.708Z,101436.94
2023-01-10T06:43:45.733Z,101447.94
2023-01-10T06:46:14.011Z,101454.97
2023-01-10T06:48:40.777Z,101456.59
2023-01-10T06:51:07.622Z,101452.81
2023-01-10T06:53:34.587Z,101451.22
2023-01-10T06:56:01.540Z,101458.44
2023-01-10T06:58:32.469Z,101462.22
2023-01-10T07:00:59.531Z,101471.09
2023-01-10T07:03:26.474Z,101471.56
2023-01-10T07:05:53.224Z,101471.91
2023-01-10T07:08:19.923Z,101470.03
2023-01-10T07:10:46.761Z,101494.22
2023-01-10T07:13:13.595Z,101477.53
2023-01-10T07:15:40.355Z,101477.03
2023-01-10T07:18:07.350Z,101479.19
2023-01-10T07:20:34.118Z,101490.47
2023-01-10T07:23:01.141Z,101491.78
2023-01-10T07:25:29.233Z,101503.63
2023-01-10T07:27:57.296Z,101500.69
2023-01-10T07:30:25.462Z,101505.03
2023-01-10T07:32:58.910Z,101504.44
2023-01-10T07:35:26.171Z,101511.72
2023-01-10T07:37:52.886Z,101518.44
2023-01-10T07:40:19.722Z,101520.88
2023-01-10T07:42:46.492Z,101519.50
2023-01-10T07:45:13.328Z,101523.31
2023-01-10T07:47:40.401Z,101523.88
2023-01-10T07:50:07.676Z,101517.38
2023-01-10T07:52:34.718Z,101527.88
2023-01-10T07:55:01.640Z,101524.09
2023-01-10T07:57:28.371Z,101534.03
2023-01-10T07:59:55.092Z,101513.09
2023-01-10T08:02:21.947Z,101520.09
2023-01-10T08:04:48.800Z,101524.38
2023-01-10T08:07:15.582Z,101519.00
2023-01-10T08:09:42.239Z,101517.41
2023-01-10T08:12:08.982Z,101521.13
2023-01-10T08:14:35.735Z,101522.50
2023-01-10T08:17:02.488Z,101518.19
2023-01-10T08:19:29.222Z,101517.13
2023-01-10T08:21:55.972Z,101515.22
2023-01-10T08:24:22.891Z,101500.66
2023-01-10T08:26:49.536Z,101511.72
2023-01-10T08:29:16.475Z,101505.25
2023-01-10T08:31:43.626Z,101514.41
2023-01-10T08:34:13.238Z,101510.09
2023-01-10T08:36:40.167Z,101519.78
2023-01-10T08:39:06.905Z,101512.81
2023-01-10T08:41:33.761Z,101510.91
2023-01-10T08:44:00.980Z,101527.31
2023-01-10T08:46:27.855Z,101514.41
2023-01-10T08:48:54.786Z,101514.13
2023-01-10T08:51:21.738Z,101511.97
2023-01-10T08:53:48.752Z,101509.53
2023-01-10T08:56:15.545Z,101507.91
2023-01-10T08:58:42.317Z,101507.69
2023-01-10T09:01:09.653Z,101498.50
2023-01-10T09:03:36.382Z,101502.28
2023-01-10T09:06:03.440Z,101508.44
2023-01-10T09:08:30.488Z,101503.06
2023-01-10T09:11:01.196Z,101502.53
2023-01-10T09:13:29.379Z,101502.53
2023-01-10T09:15:56.957Z,101499.56
2023-01-10T09:18:24.472Z,101500.38
2023-01-10T09:20:51.753Z,101491.75
2023-01-10T09:23:20.494Z,101498.69
2023-01-10T09:25:49.409Z,101507.38
2023-01-10T09:28:16.736Z,101498.34
2023-01-10T09:30:44.591Z,101492.13
2023-01-10T09:33:12.047Z,101488.44
2023-01-10T09:35:40.393Z,101485.72
2023-01-10T09:38:10.712Z,101484.19
2023-01-10T09:41:01.077Z,101474.97
2023-01-10T09:43:33.848Z,101481.22
2023-01-10T09:46:13.376Z,101458.72
2023-01-10T09:48:43.096Z,101470.28
2023-01-10T09:51:24.017Z,101462.41
2023-01-10T09:53:53.785Z,101463.00
2023-01-10T09:56:23.312Z,101463.06
2023-01-10T09:58:50.173Z,101464.91
2023-01-10T10:01:43.024Z,101463.28
2023-01-10T10:04:22.174Z,101460.59
2023-01-10T10:06:52.398Z,101461.66
2023-01-10T10:09:23.796Z,101473.31
2023-01-10T10:12:24.630Z,101459.56
2023-01-10T10:15:00.783Z,101461.47
2023-01-10T10:17:33.604Z,101456.97
2023-01-10T10:20:22.153Z,101448.91
2023-01-10T10:23:04.131Z,101454.47
2023-01-10T10:25:44.091Z,101442.13
2023-01-10T10:28:16.923Z,101433.28
2023-01-10T10:31:02.177Z,101437.31
2023-01-10T10:33:57.673Z,101439.56
2023-01-10T10:36:53.646Z,101435.34
2023-01-10T10:39:44.093Z,101415.88
2023-01-10T10:42:17.149Z,101418.50
2023-01-10T10:44:48.000Z,101412.19
2023-01-10T10:47:20.287Z,101408.78
2023-01-10T10:49:50.841Z,101412.47
2023-01-10T10:52:31.625Z,101401.00
2023-01-10T10:54:59.035Z,101394.78
2023-01-10T10:57:28.328Z,101386.81
2023-01-10T10:59:56.675Z,101387.13
2023-01-10T11:02:31.559Z,101385.59
2023-01-10T11:05:02.271Z,101382.13
2023-01-10T11:07:34.697Z,101375.88
2023-01-10T11:10:17.053Z,101368.25
2023-01-10T11:12:48.594Z,101370.66
2023-01-10T11:15:35.502Z,101369.25
2023-01-10T11:18:24.105Z,101371.88
2023-01-10T11:21:00.882Z,101367.41
2023-01-10T11:23:39.934Z,101370.09
2023-01-10T11:26:24.474Z,101365.25
2023-01-10T11:29:24.547Z,101368.97
2023-01-10T11:31:54.778Z,101365.53
2023-01-10T11:34:34.199Z,101364.31
2023-01-10T11:37:18.801Z,101363.66
2023-01-10T11:39:45.901Z,101357.28
2023-01-10T11:42:24.970Z,101353.91
2023-01-10T11:44:51.691Z,101349.22
2023-01-10T11:47:21.078Z,101357.09
2023-01-10T11:49:49.085Z,101344.56
2023-01-10T11:52:28.173Z,101347.56
2023-01-10T11:54:58.423Z,101339.84
2023-01-10T11:57:27.538Z,101333.41
2023-01-10T12:00:15.147Z,101330.91
2023-01-10T12:02:46.606Z,101328.84
2023-01-10T12:05:23.771Z,101325.69
2023-01-10T12:08:06.129Z,101323.28
2023-01-10T12:10:34.341Z,101303.22
2023-01-10T12:13:17.234Z,101305.84
2023-01-10T12:15:44.262Z,101301.91
2023-01-10T12:18:11.253Z,101293.06
2023-01-10T12:20:49.772Z,101282.69
2023-01-10T12:23:19.023Z,101284.19
2023-01-10T12:25:46.731Z,101283.94
2023-01-10T12:28:28.922Z,101281.13
2023-01-10T12:30:59.306Z,101279.25
2023-01-10T12:33:35.164Z,101276.34
2023-01-10T12:36:04.021Z,101268.38
2023-01-10T12:39:01.482Z,101271.88
2023-01-10T12:41:53.264Z,101258.34
2023-01-10T12:44:27.234Z,101242.72
2023-01-10T12:47:08.348Z,101251.66
2023-01-10T12:49:44.946Z,101253.59
2023-01-10T12:52:23.224Z,101236.09
2023-01-10T12:54:50.355Z,101248.94
2023-01-10T12:57:40.817Z,101241.56
2023-01-10T13:00:25.022Z,101231.03
2023-01-10T13:02:55.165Z,101226.53
2023-01-10T13:05:26.796Z,101223.78
2023-01-10T13:07:59.396Z,101214.50
2023-01-10T13:10:27.082Z,101220.31
2023-01-10T13:13:35.548Z,101205.16
2023-01-10T13:16:33.979Z,101194.13
2023-01-10T13:19:09.587Z,101180.03
2023-01-10T13:21:38.233Z,101176.00
2023-01-10T13:24:07.211Z,101175.53
2023-01-10T13:26:59.407Z,101172.78
2023-01-10T13:29:30.208Z,101156.00
2023-01-10T13:31:59.673Z,101159.06
2023-01-10T13:34:32.676Z,101158.97
2023-01-10T13:37:03.719Z,101148.53
2023-01-10T13:39:51.748Z,101131.41
2023-01-10T13:42:50.319Z,101128.06
2023-01-10T13:45:16.984Z,101119.72
2023-01-10T13:47:44.192Z,101120.41
2023-01-10T13:50:23.349Z,101116.75
2023-01-10T13:52:54.286Z,101120.88
2023-01-10T13:55:30.407Z,101099.69
2023-01-10T13:58:17.545Z,101100.38
2023-01-10T14:01:02.618Z,101101.34
2023-01-10T14:03:41.576Z,101104.44
2023-01-10T14:06:29.636Z,101094.34
2023-01-10T14:09:01.932Z,101090.25
2023-01-10T14:11:44.029Z,101086.53
2023-01-10T14:14:37.465Z,101080.34
2023-01-10T14:17:14.849Z,101052.28
2023-01-10T14:19:44.523Z,101038.34
2023-01-10T14:22:31.274Z,101039.56
2023-01-10T14:25:00.262Z,101026.75
2023-01-10T14:27:37.942Z,101026.75
2023-01-10T14:30:06.279Z,101008.56
2023-01-10T14:32:32.898Z,101014.94
2023-01-10T14:35:05.758Z,101000.81
2023-01-10T14:37:38.410Z,100999.75
2023-01-10T14:40:11.151Z,100987.09
2023-01-10T14:42:38.258Z,100997.53
2023-01-10T14:45:27.533Z,100993.28
2023-01-10T14:47:54.473Z,100982.88
2023-01-10T14:50:32.330Z,100972.94
2023-01-10T14:53:00.554Z,100978.56
2023-01-10T14:55:28.111Z,100980.53
2023-01-10T14:58:00.477Z,100970.91
2023-01-10T15:00:33.345Z,100971.22
2023-01-10T15:03:04.035Z,100961.19
2023-01-10T15:05:45.466Z,100959.31
2023-01-10T15:08:30.818Z,100958.66
2023-01-10T15:11:06.809Z,100954.22
2023-01-10T15:13:36.887Z,100951.09
2023-01-10T15:16:05.638Z,100914.50
2023-01-10T15:18:40.041Z,100933.09
2023-01-10T15:21:07.139Z,100917.56
2023-01-10T15:23:39.481Z,100906.72
2023-01-10T15:26:10.851Z,100919.22
2023-01-10T15:28:37.983Z,100915.22
2023-01-10T15:31:05.879Z,100920.66
2023-01-10T15:33:35.705Z,100913.53
2023-01-10T15:36:07.929Z,100907.38
2023-01-10T15:38:38.440Z,100899.88
2023-01-10T15:41:06.895Z,100889.69
2023-01-10T15:43:35.214Z,100891.78
2023-01-10T15:46:04.590Z,100881.78
2023-01-10T15:48:33.926Z,100873.47
2023-01-10T15:51:28.743Z,100863.44
2023-01-10T15:54:20.515Z,100874.72
2023-01-10T15:56:49.681Z,100862.88
2023-01-10T15:59:33.104Z,100865.38
2023-01-10T16:02:12.914Z,100862.28
2023-01-10T16:04:40.528Z,100857.41
2023-01-10T16:07:22.857Z,100848.34
2023-01-10T16:10:04.393Z,100848.47
2023-01-10T16:12:56.370Z,100841.41
2023-01-10T16:15:27.601Z,100836.13
2023-01-10T16:17:55.041Z,100835.38
2023-01-10T16:20:32.405Z,100834.53
2023-01-10T16:22:59.964Z,100838.03
2023-01-10T16:25:35.962Z,100842.16
2023-01-10T16:28:02.877Z,100821.72
2023-01-10T16:30:32.580Z,100833.31
2023-01-10T16:33:01.287Z,100832.38
2023-01-10T16:35:28.159Z,100833.25
2023-01-10T16:37:57.742Z,100836.47
2023-01-10T16:40:35.679Z,100836.88
2023-01-10T16:43:18.314Z,100833.53
2023-01-10T16:45:45.480Z,100833.13
2023-01-10T16:48:13.088Z,100830.03
2023-01-10T16:50:41.392Z,100826.66
2023-01-10T16:53:11.848Z,100841.19
2023-01-10T16:55:41.297Z,100823.41
2023-01-10T16:58:09.652Z,100832.09
2023-01-10T17:00:37.933Z,100836.69
2023-01-10T17:03:10.779Z,100821.88
2023-01-10T17:05:38.574Z,100826.19
2023-01-10T17:08:05.844Z,100823.38
2023-01-10T17:10:35.320Z,100827.16
2023-01-10T17:13:04.480Z,100816.91
2023-01-10T17:15:32.199Z,100813.28
2023-01-10T17:17:59.132Z,100816.81
2023-01-10T17:20:26.006Z,100810.31
2023-01-10T17:22:52.938Z,100818.28
2023-01-10T17:25:20.275Z,100808.91
2023-01-10T17:27:47.182Z,100813.09
2023-01-10T17:30:17.147Z,100816.22
2023-01-10T17:32:44.062Z,100801.50
2023-01-10T17:35:11.079Z,100805.91
2023-01-10T17:37:38.731Z,100807.69
2023-01-10T17:40:06.050Z,100807.31
2023-01-10T17:42:35.715Z,100810.59
2023-01-10T17:45:03.148Z,100809.91
2023-01-10T17:47:30.062Z,100793.59
2023-01-10T17:49:57.000Z,100790.38
2023-01-10T17:52:27.593Z,100788.13
2023-01-10T17:54:54.347Z,100787.41
2023-01-10T17:57:22.560Z,100775.41
2023-01-10T17:59:49.291Z,100783.41
2023-01-10T18:02:18.442Z,100770.47
2023-01-10T18:04:45.983Z,100769.28
2023-01-10T18:07:13.226Z,100769.50
2023-01-10T18:09:40.101Z,100758.81
2023-01-10T18:12:07.211Z,100759.88
2023-01-10T18:14:36.844Z,100765.59
2023-01-10T18:17:09.131Z,100751.31
2023-01-10T18:19:36.304Z,100754.09
2023-01-10T18:22:24.603Z,100746.28
2023-01-10T18:24:53.038Z,100742.59
2023-01-10T18:27:23.717Z,100750.97
2023-01-10T18:29:51.754Z,100740.03
2023-01-10T18:32:19.243Z,100735.69
2023-01-10T18:34:49.849Z,100738.47
2023-01-10T18:37:18.283Z,100737.69
2023-01-10T18:39:45.349Z,100742.28
2023-01-10T18:42:12.547Z,100735.06
2023-01-10T18:44:39.826Z,100735.94
2023-01-10T18:47:07.719Z,100728.94
2023-01-10T18:49:34.520Z,100736.16
2023-01-10T18:52:01.389Z,100736.16
2023-01-10T18:54:28.207Z,100728.66
2023-01-10T18:56:55.988Z,100720.53
2023-01-10T18:59:23.157Z,100718.41
2023-01-10T19:01:50.098Z,100715.41
2023-01-10T19:04:18.607Z,100724.91
2023-01-10T19:06:48.703Z,100726.09
2023-01-10T19:09:15.447Z,100711.09
2023-01-10T19:11:42.180Z,100721.75
2023-01-10T19:14:08.901Z,100731.00
2023-01-10T19:16:35.978Z,100714.34
2023-01-10T19:19:05.260Z,100710.13
2023-01-10T19:21:33.775Z,100703.78
2023-01-10T19:24:02.550Z,100688.06
2023-01-10T19:26:29.434Z,100685.72
2023-01-10T19:28:56.341Z,100687.88
2023-01-10T19:31:26.139Z,100693.69
2023-01-10T19:33:53.847Z,100689.78
2023-01-10T19:36:22.770Z,100680.63
2023-01-10T19:38:56.921Z,100681.31
2023-01-10T19:41:25.433Z,100686.09
2023-01-10T19:43:59.808Z,100686.88
2023-01-10T19:46:28.373Z,100675.53
2023-01-10T19:48:55.860Z,100689.84
2023-01-10T19:51:22.669Z,100672.34
2023-01-10T19:53:49.384Z,100677.03
2023-01-10T19:56:19.963Z,100667.47
2023-01-10T19:58:46.985Z,100666.59
2023-01-10T20:01:19.846Z,100658.25
2023-01-10T20:03:47.793Z,100650.94
2023-01-10T20:06:21.013Z,100662.78
2023-01-10T20:08:48.780Z,100658.94
2023-01-10T20:11:16.250Z,100666.75
2023-01-10T20:13:45.245Z,100658.63
2023-01-10T20:16:13.972Z,100652.00
2023-01-10T20:18:41.601Z,100655.28
2023-01-10T20:21:09.816Z,100640.88
2023-01-10T20:23:37.909Z,100652.31
2023-01-10T20:26:12.281Z,100646.69
2023-01-10T20:28:40.358Z,100636.91
2023-01-10T20:31:14.015Z,100636.13
2023-01-10T20:33:41.073Z,100630.19
2023-01-10T20:36:14.169Z,100621.03
2023-01-10T20:38:41.367Z,100616.94
2023-01-10T20:41:16.999Z,100628.50
2023-01-10T20:43:44.720Z,100630.00
2023-01-10T20:46:17.234Z,100612.16
2023-01-10T20:49:03.206Z,100610.66
2023-01-10T20:51:36.461Z,100612.16
2023-01-10T20:54:05.833Z,100610.47
2023-01-10T20:56:33.213Z,100613.63
2023-01-10T20:59:00.090Z,100617.66
2023-01-10T21:01:34.684Z,100604.88
2023-01-10T21:04:05.579Z,100604.69
2023-01-10T21:06:33.275Z,100606.31
2023-01-10T21:09:00.606Z,100591.78
2023-01-10T21:11:27.593Z,100584.47
2023-01-10T21:13:54.410Z,100586.13
2023-01-10T21:16:22.559Z,100573.03
2023-01-10T21:18:50.614Z,100585.00
2023-01-10T21:21:22.727Z,100591.22
2023-01-10T21:23:49.809Z,100586.59
2023-01-10T21:26:16.717Z,100583.97
2023-01-10T21:28:48.385Z,100584.34
2023-01-10T21:31:18.182Z,100585.13
2023-01-10T21:33:45.430Z,100585.28
2023-01-10T21:36:13.547Z,100581.63
2023-01-10T21:38:41.136Z,100569.53
2023-01-10T21:41:39.235Z,100576.53
2023-01-10T21:44:07.346Z,100569.78
2023-01-10T21:46:34.655Z,100560.59
2023-01-10T21:49:02.393Z,100561.69
2023-01-10T21:51:29.119Z,100545.34
2023-01-10T21:53:55.959Z,100563.63
2023-01-10T21:56:23.495Z,100569.94
2023-01-10T21:58:50.709Z,100562.66
2023-01-10T22:01:17.936Z,100557.19
2023-01-10T22:03:45.717Z,100560.28
2023-01-10T22:06:13.160Z,100550.69
2023-01-10T22:08:39.922Z,100536.84
2023-01-10T22:11:07.226Z,100548.03
2023-01-10T22:13:34.861Z,100548.03
2023-01-10T22:16:02.161Z,100550.16
2023-01-10T22:18:30.631Z,100551.75
2023-01-10T22:20:58.278Z,100550.00
2023-01-10T22:23:25.224Z,100547.66
2023-01-10T22:26:14.476Z,100545.13
2023-01-10T22:28:41.703Z,100541.91
2023-01-10T22:31:08.941Z,100528.78
2023-01-10T22:33:37.479Z,100529.22
2023-01-10T22:36:18.398Z,100527.25
2023-01-10T22:38:46.214Z,100529.97
2023-01-10T22:41:15.839Z,100524.91
2023-01-10T22:43:42.682Z,100518.75
2023-01-10T22:46:09.689Z,100514.50
2023-01-10T22:48:37.653Z,100512.19
2023-01-10T22:51:05.649Z,100518.28
2023-01-10T22:53:32.843Z,100513.63
2023-01-10T22:56:00.868Z,100498.31
2023-01-10T22:58:28.154Z,100500.88
2023-01-10T23:00:54.889Z,100500.06
2023-01-10T23:03:21.731Z,100501.66
2023-01-10T23:05:48.486Z,100498.38
2023-01-10T23:08:15.223Z,100499.84
2023-01-10T23:10:42.075Z,100495.97
2023-01-10T23:13:08.960Z,100493.97
2023-01-10T23:15:35.867Z,100486.53
2023-01-10T23:18:02.898Z,100487.28
2023-01-10T23:20:29.776Z,100484.59
2023-01-10T23:22:56.563Z,100488.13
2023-01-10T23:25:23.768Z,100484.19
2023-01-10T23:27:51.067Z,100491.00
2023-01-10T23:30:17.868Z,100486.03
2023-01-10T23:32:44.772Z,100484.19
2023-01-10T23:35:11.635Z,100481.09
2023-01-10T23:37:38.366Z,100470.03
2023-01-10T23:40:06.176Z,100466.31
2023-01-10T23:42:32.910Z,100464.13
2023-01-10T23:44:59.617Z,100450.69
2023-01-10T23:47:26.421Z,100460.59
2023-01-10T23:49:53.200Z,100450.44
2023-01-10T23:52:20.020Z,100455.72
2023-01-10T23:54:46.661Z,100448.19
2023-01-10T23:57:13.518Z,100450.84
2023-01-10T23:59:40.378Z,100456.59
